createdAt,value
2023-04-19T00:03:03.360Z,77.78
2023-04-19T00:08:08.434Z,78.44
2023-04-19T00:13:09.813Z,78.07
2023-04-19T00:18:11.136Z,78.35
2023-04-19T00:23:12.475Z,78.06
2023-04-19T00:28:14.309Z,78.79
2023-04-19T00:33:15.654Z,79.21
2023-04-19T00:38:16.962Z,79.36
2023-04-19T00:43:22.586Z,80.10
2023-04-19T00:48:24.303Z,80.13
2023-04-19T00:53:26.610Z,80.88
2023-04-19T00:58:30.182Z,85.28
2023-04-19T01:03:31.833Z,85.94
2023-04-19T01:08:33.300Z,86.81
2023-04-19T01:13:34.964Z,88.43
2023-04-19T01:18:38.179Z,90.05
2023-04-19T01:23:39.494Z,91.88
2023-04-19T01:28:40.895Z,91.37
2023-04-19T01:33:42.199Z,92.93
2023-04-19T01:38:43.829Z,92.67
2023-04-19T01:43:45.259Z,95.07
2023-04-19T01:48:46.552Z,96.62
2023-04-19T01:53:53.371Z,97.25
2023-04-19T01:58:54.716Z,97.92
2023-04-19T02:03:56.301Z,98.78
2023-04-19T02:08:57.711Z,100.00
2023-04-19T02:14:00.176Z,100.00
2023-04-19T02:19:02.589Z,100.00
2023-04-19T02:24:04.344Z,100.00
2023-04-19T02:29:07.069Z,100.00
2023-04-19T02:34:08.509Z,100.00
2023-04-19T02:39:09.837Z,100.00
2023-04-19T02:44:11.135Z,100.00
2023-04-19T02:49:12.480Z,100.00
2023-04-19T02:54:14.094Z,100.00
2023-04-19T02:59:15.674Z,100.00
2023-04-19T03:04:17.358Z,100.00
2023-04-19T03:09:18.872Z,100.00
2023-04-19T03:14:20.206Z,100.00
2023-04-19T03:19:21.782Z,100.00
2023-04-19T03:24:32.445Z,100.00
2023-04-19T03:29:33.778Z,100.00
2023-04-19T03:34:35.099Z,100.00
2023-04-19T03:39:36.402Z,100.00
2023-04-19T03:44:37.972Z,100.00
2023-04-19T03:49:39.331Z,100.00
2023-04-19T03:54:40.712Z,100.00
2023-04-19T03:59:42.033Z,100.00
2023-04-19T04:04:43.529Z,100.00
2023-04-19T04:09:47.318Z,100.00
2023-04-19T04:14:48.624Z,100.00
2023-04-19T04:19:50.266Z,100.00
2023-04-19T04:24:53.868Z,100.00
2023-04-19T04:29:56.756Z,100.00
2023-04-19T04:34:58.118Z,100.00
2023-04-19T04:39:59.931Z,100.00
2023-04-19T04:45:01.563Z,100.00
2023-04-19T04:50:03.444Z,100.00
2023-04-19T04:55:06.112Z,100.00
2023-04-19T05:00:07.752Z,100.00
2023-04-19T05:05:11.195Z,100.00
2023-04-19T05:10:12.517Z,100.00
2023-04-19T05:15:13.822Z,100.00
2023-04-19T05:20:15.189Z,100.00
2023-04-19T05:25:16.638Z,100.00
2023-04-19T05:30:18.166Z,100.00
2023-04-19T05:35:20.052Z,100.00
2023-04-19T05:40:22.770Z,100.00
2023-04-19T05:45:24.467Z,100.00
2023-04-19T05:50:25.814Z,100.00
2023-04-19T05:55:27.173Z,100.00
2023-04-19T06:00:28.533Z,100.00
2023-04-19T06:05:29.898Z,100.00
2023-04-19T06:10:41.195Z,100.00
2023-04-19T06:15:52.800Z,100.00
2023-04-19T06:20:54.341Z,100.00
2023-04-19T06:25:55.649Z,100.00
2023-04-19T06:30:56.970Z,100.00
2023-04-19T06:35:58.282Z,100.00
2023-04-19T06:40:59.584Z,100.00
2023-04-19T06:46:01.817Z,100.00
2023-04-19T06:51:03.355Z,100.00
2023-04-19T06:56:04.924Z,100.00
2023-04-19T07:01:06.501Z,100.00
2023-04-19T07:06:07.874Z,100.00
2023-04-19T07:11:09.237Z,100.00
2023-04-19T07:16:10.764Z,99.49
2023-04-19T07:21:12.190Z,98.73
2023-04-19T07:26:14.977Z,97.69
2023-04-19T07:31:17.539Z,95.68
2023-04-19T07:36:19.050Z,92.46
2023-04-19T07:41:20.486Z,91.44
2023-04-19T07:46:21.852Z,87.80
2023-04-19T07:51:24.669Z,85.03
2023-04-19T07:56:26.785Z,82.53
2023-04-19T08:01:30.724Z,66.87
2023-04-19T08:06:33.891Z,52.38
2023-04-19T08:11:35.210Z,51.42
2023-04-19T08:21:41.754Z,46.56
2023-04-19T08:26:43.327Z,47.34
2023-04-19T08:31:44.723Z,43.09
2023-04-19T08:36:55.770Z,46.73
2023-04-19T08:42:10.953Z,43.81
2023-04-19T08:47:30.349Z,38.41
2023-04-19T08:52:35.405Z,44.51
2023-04-19T08:57:38.615Z,45.92
2023-04-19T09:02:48.129Z,57.01
2023-04-19T09:07:50.097Z,60.08
2023-04-19T09:13:04.945Z,56.74
2023-04-19T09:18:08.074Z,59.64
2023-04-19T09:23:12.547Z,59.97
2023-04-19T09:28:14.727Z,54.63
2023-04-19T09:33:31.348Z,58.64
2023-04-19T09:38:49.024Z,55.30
2023-04-19T09:48:54.824Z,48.08
2023-04-19T09:53:56.335Z,51.07
2023-04-19T09:59:04.946Z,43.01
2023-04-19T10:04:29.381Z,39.04
2023-04-19T10:09:49.678Z,37.98
2023-04-19T10:14:57.355Z,39.53
2023-04-19T10:20:01.435Z,38.19
2023-04-19T10:25:13.024Z,34.13
2023-04-19T10:30:19.131Z,35.47
2023-04-19T10:35:21.933Z,36.69
2023-04-19T10:40:42.070Z,33.91
2023-04-19T10:45:43.686Z,29.21
2023-04-19T10:51:04.620Z,30.54
2023-04-19T10:56:06.604Z,31.72
2023-04-19T11:01:26.899Z,31.36
2023-04-19T11:06:28.341Z,31.97
2023-04-19T11:11:33.032Z,30.77
2023-04-19T11:16:44.856Z,30.88
2023-04-19T11:21:47.815Z,30.14
2023-04-19T11:26:49.188Z,29.33
2023-04-19T11:31:50.557Z,30.73
2023-04-19T11:36:52.746Z,27.23
2023-04-19T11:41:54.118Z,31.07
2023-04-19T11:46:59.648Z,29.48
2023-04-19T11:52:05.253Z,29.09
2023-04-19T11:57:07.737Z,29.89
2023-04-19T12:02:10.307Z,28.02
2023-04-19T12:07:11.662Z,28.50
2023-04-19T12:12:13.035Z,27.87
2023-04-19T12:17:15.774Z,25.06
2023-04-19T12:22:20.236Z,27.90
2023-04-19T12:27:21.570Z,26.75
2023-04-19T12:32:23.047Z,28.06
2023-04-19T12:37:24.541Z,27.80
2023-04-19T12:42:25.948Z,30.01
2023-04-19T12:47:27.350Z,29.40
2023-04-19T12:52:28.764Z,29.11
2023-04-19T12:57:30.259Z,27.32
2023-04-19T13:02:33.688Z,28.24
2023-04-19T13:07:35.073Z,28.91
2023-04-19T13:12:36.465Z,29.20
2023-04-19T13:17:38.171Z,30.33
2023-04-19T13:22:39.495Z,28.10
2023-04-19T13:27:41.007Z,29.13
2023-04-19T13:32:43.060Z,31.76
2023-04-19T13:37:46.846Z,27.76
2023-04-19T13:42:48.185Z,27.42
2023-04-19T13:47:49.637Z,25.78
2023-04-19T13:52:51.496Z,27.08
2023-04-19T13:57:52.834Z,24.77
2023-04-19T14:02:55.059Z,24.52
2023-04-19T14:07:56.588Z,25.85
2023-04-19T14:12:57.919Z,25.56
2023-04-19T14:18:00.276Z,26.41
2023-04-19T14:23:01.670Z,26.46
2023-04-19T14:28:03.075Z,26.45
2023-04-19T14:33:04.619Z,24.81
2023-04-19T14:38:06.277Z,24.95
2023-04-19T14:43:07.652Z,23.41
2023-04-19T14:48:09.069Z,24.61
2023-04-19T14:53:10.617Z,24.64
2023-04-19T14:58:11.931Z,22.96
2023-04-19T15:03:13.553Z,24.08
2023-04-19T15:08:29.152Z,25.56
2023-04-19T15:13:31.923Z,25.64
2023-04-19T15:18:33.272Z,26.91
2023-04-19T15:23:34.662Z,26.60
2023-04-19T15:28:36.191Z,26.87
2023-04-19T15:33:37.829Z,26.77
2023-04-19T15:38:39.187Z,28.30
2023-04-19T15:43:40.535Z,27.34
2023-04-19T15:48:42.181Z,28.60
2023-04-19T15:53:43.593Z,28.73
2023-04-19T15:58:44.930Z,27.89
2023-04-19T16:03:46.516Z,28.89
2023-04-19T16:08:47.941Z,27.38
2023-04-19T16:13:49.467Z,28.03
2023-04-19T16:18:51.101Z,26.38
2023-04-19T16:23:52.432Z,26.96
2023-04-19T16:28:55.607Z,27.21
2023-04-19T16:33:56.983Z,26.44
2023-04-19T16:38:58.293Z,26.17
2023-04-19T16:43:59.644Z,29.08
2023-04-19T16:49:01.754Z,29.10
2023-04-19T16:54:03.101Z,28.72
2023-04-19T16:59:04.480Z,29.39
2023-04-19T17:04:06.201Z,28.58
2023-04-19T17:09:07.811Z,29.42
2023-04-19T17:14:09.157Z,27.40
2023-04-19T17:19:10.925Z,29.07
2023-04-19T17:24:12.466Z,28.99
2023-04-19T17:29:13.777Z,30.31
2023-04-19T17:34:15.264Z,29.42
2023-04-19T17:39:16.960Z,29.27
2023-04-19T17:44:18.419Z,30.31
2023-04-19T17:49:21.137Z,29.78
2023-04-19T17:54:22.586Z,30.43
2023-04-19T17:59:23.898Z,30.64
2023-04-19T18:04:25.384Z,31.49
2023-04-19T18:09:26.808Z,33.12
2023-04-19T18:14:28.461Z,31.97
2023-04-19T18:19:29.764Z,31.59
2023-04-19T18:24:31.834Z,32.64
2023-04-19T18:29:33.167Z,34.40
2023-04-19T18:34:34.599Z,36.77
2023-04-19T18:39:35.914Z,34.60
2023-04-19T18:44:52.954Z,35.79
2023-04-19T18:50:03.603Z,35.03
2023-04-19T18:55:07.369Z,36.44
2023-04-19T19:00:11.771Z,35.58
2023-04-19T19:05:15.381Z,37.48
2023-04-19T19:10:20.837Z,36.98
2023-04-19T19:15:23.054Z,35.87
2023-04-19T19:20:24.392Z,36.06
2023-04-19T19:25:25.726Z,35.45
2023-04-19T19:30:29.493Z,36.50
2023-04-19T19:35:30.882Z,38.59
2023-04-19T19:40:33.092Z,38.02
2023-04-19T19:45:36.407Z,39.28
2023-04-19T19:51:11.999Z,39.97
2023-04-19T19:55:59.696Z,40.33
2023-04-19T20:01:02.198Z,41.03
2023-04-19T20:06:35.757Z,41.10
2023-04-19T20:11:26.011Z,40.75
2023-04-19T20:16:28.983Z,43.19
2023-04-19T20:21:31.228Z,43.11
2023-04-19T20:26:32.858Z,45.48
2023-04-19T20:31:34.274Z,44.48
2023-04-19T20:36:37.071Z,44.30
2023-04-19T20:41:38.618Z,44.95
2023-04-19T20:46:39.983Z,43.50
2023-04-19T20:51:41.296Z,43.60
2023-04-19T20:56:42.605Z,44.16
2023-04-19T21:01:44.001Z,45.18
2023-04-19T21:06:46.474Z,47.35
2023-04-19T21:11:47.902Z,48.55
2023-04-19T21:16:49.212Z,51.21
2023-04-19T21:21:50.651Z,52.16
2023-04-19T21:26:51.961Z,52.64
2023-04-19T21:31:53.375Z,58.04
2023-04-19T21:36:54.864Z,59.66
2023-04-19T21:41:56.176Z,61.07
2023-04-19T21:46:57.743Z,62.43
2023-04-19T21:51:59.131Z,62.56
2023-04-19T21:57:00.560Z,64.71
2023-04-19T22:02:01.948Z,67.12
2023-04-19T22:07:03.389Z,67.58
2023-04-19T22:12:05.506Z,68.74
2023-04-19T22:17:06.835Z,67.79
2023-04-19T22:22:08.163Z,69.64
2023-04-19T22:27:09.465Z,69.18
2023-04-19T22:32:10.827Z,69.70
2023-04-19T22:37:12.175Z,72.25
2023-04-19T22:42:13.563Z,71.26
2023-04-19T22:47:15.147Z,71.71
2023-04-19T22:52:16.505Z,71.38
2023-04-19T22:57:17.812Z,71.82
2023-04-19T23:02:19.198Z,74.37
2023-04-19T23:07:21.871Z,74.15
2023-04-19T23:12:24.098Z,73.58
2023-04-19T23:17:25.554Z,74.63
2023-04-19T23:22:26.895Z,74.69
2023-04-19T23:27:28.255Z,75.10
2023-04-19T23:32:29.959Z,75.52
2023-04-19T23:37:31.272Z,76.32
2023-04-19T23:42:32.656Z,77.44
2023-04-19T23:47:34.241Z,76.21
2023-04-19T23:52:35.644Z,77.11
2023-04-19T23:57:36.967Z,76.20
